This is the latest recevied weather packets stored in our database for station/object IA5ITY-13. If no packets are shown the sender has not sent any weather packets the latest 10 day(s).
| Time | Temp. | Humidity | Pressure | Rain* | Wind** | Luminosity | Snow |
|---|---|---|---|---|---|---|---|
| 1777480509 | 22.78° C | 30% | 1012.9 hPa | 0 mm | - | - | - |
| 1777479909 | 22.78° C | 30% | 1012.8 hPa | 0 mm | - | - | - |
| 1777476909 | 23.89° C | 26% | 1012.9 hPa | 0 mm | - | - | - |
| 1777471232 | 22.78° C | 35% | 1013.4 hPa | 0 mm | - | - | - |
| 1777470909 | 22.22° C | 49% | 1013.4 hPa | 0 mm | - | - | - |
| 1777470613 | 22.78° C | 42% | 1013.4 hPa | 0 mm | - | - | - |
| 1777469423 | 23.89° C | 24% | 1013.5 hPa | 0 mm | - | - | - |
| 1777469110 | 23.89° C | 29% | 1013.5 hPa | 0 mm | - | - | - |
| 1777468214 | 23.89° C | 26% | 1013.8 hPa | 0 mm | - | - | - |
| 1777466716 | 23.89° C | 29% | 1014 hPa | 0 mm | - | - | - |
| 1777465509 | 23.89° C | 27% | 1014 hPa | 0 mm | - | - | - |
| 1777464915 | 25° C | 26% | 1013.9 hPa | 0 mm | - | - | - |
| 1777463114 | 22.78° C | 34% | 1013.9 hPa | 0 mm | - | - | - |
| 1777462509 | 22.22° C | 48% | 1014 hPa | 0 mm | - | - | - |
| 1777462227 | 22.22° C | 48% | 1013.9 hPa | 0 mm | - | - | - |
| 1777461909 | 22.22° C | 39% | 1014 hPa | 0 mm | - | - | - |
| 1777461613 | 22.22° C | 46% | 1013.9 hPa | 0 mm | - | - | - |
| 1777461315 | 22.78° C | 43% | 1014 hPa | 0 mm | - | - | - |
| 1777460109 | 21.11° C | 46% | 1014.1 hPa | 0 mm | - | - | - |
| 1777459514 | 21.11° C | 46% | 1014.1 hPa | 0 mm | - | - | - |
| 1777458909 | 22.78° C | 37% | 1014.2 hPa | 0 mm | - | - | - |
| 1777458626 | 22.22° C | 40% | 1014.2 hPa | 0 mm | - | - | - |
| 1777458013 | 23.89° C | 36% | 1014.2 hPa | 0 mm | - | - | - |
| 1777457714 | 22.78° C | 37% | 1014.4 hPa | 0 mm | - | - | - |
| 1777457413 | 22.22° C | 43% | 1014.5 hPa | 0 mm | - | - | - |
* Rain latest hour (hover to see other rain measurements)
** Current wind speed in m/s (hover to see current wind gust speed)